Time,TemperatureF,DewpointF,PressureIn,WindDirection,WindDirectionDegrees,WindSpeedMPH,WindSpeedGustMPH,Humidity,HourlyPrecipIn,Conditions,Clouds,dailyrainin,SoftwareType,DateUTC
2013-01-15 00:04:00,14.9,9.3,30.20,SSE,157,0.0,-999.0,78,-99.99,,,0.00,Acu-Link.com,2013-01-15 06:04:00,
2013-01-15 00:20:00,16.2,10.3,30.19,SSE,157,2.2,-999.0,77,-99.99,,,0.00,Acu-Link.com,2013-01-15 06:20:00,
2013-01-15 00:35:00,17.1,10.3,30.19,SW,225,4.7,-999.0,74,-99.99,,,0.00,Acu-Link.com,2013-01-15 06:35:00,
2013-01-15 00:50:00,16.3,10.1,30.19,SW,225,2.2,-999.0,76,-99.99,,,0.00,Acu-Link.com,2013-01-15 06:50:00,
2013-01-15 01:05:00,17.2,10.4,30.19,SSW,202,5.8,-999.0,74,-99.99,,,0.00,Acu-Link.com,2013-01-15 07:05:00,
2013-01-15 01:21:00,17.8,10.6,30.19,SSW,202,4.2,-999.0,73,-99.99,,,0.00,Acu-Link.com,2013-01-15 07:21:00,
2013-01-15 01:36:00,17.6,10.7,30.18,SW,225,3.2,-999.0,74,-99.99,,,0.00,Acu-Link.com,2013-01-15 07:36:00,
2013-01-15 01:51:00,17.6,11.3,30.18,NW,315,1.1,-999.0,76,-99.99,,,0.00,Acu-Link.com,2013-01-15 07:51:00,
2013-01-15 02:07:00,16.7,10.5,30.18,South,180,0.0,-999.0,76,-99.99,,,0.00,Acu-Link.com,2013-01-15 08:07:00,
2013-01-15 02:22:00,16.7,11.3,30.17,SE,135,1.1,-999.0,79,-99.99,,,0.00,Acu-Link.com,2013-01-15 08:22:00,
2013-01-15 02:37:00,16.3,11.0,30.17,NW,315,0.0,-999.0,79,-99.99,,,0.00,Acu-Link.com,2013-01-15 08:37:00,
2013-01-15 02:53:00,14.7,10.2,30.17,East,90,2.2,-999.0,82,-99.99,,,0.00,Acu-Link.com,2013-01-15 08:53:00,
2013-01-15 03:14:00,14.9,10.4,30.16,ESE,112,2.2,-999.0,82,-99.99,,,0.00,Acu-Link.com,2013-01-15 09:14:00,
2013-01-15 03:29:00,17.1,10.9,30.16,SSW,202,3.2,-999.0,76,-99.99,,,0.00,Acu-Link.com,2013-01-15 09:29:00,
2013-01-15 03:44:00,15.3,9.7,30.15,West,270,0.0,-999.0,78,-99.99,,,0.00,Acu-Link.com,2013-01-15 09:44:00,
2013-01-15 03:59:00,14.2,9.7,30.14,NW,315,0.0,-999.0,82,-99.99,,,0.00,Acu-Link.com,2013-01-15 09:59:00,
2013-01-15 04:14:00,12.9,9.8,30.14,NW,315,2.7,-999.0,87,-99.99,,,0.00,Acu-Link.com,2013-01-15 10:14:00,
2013-01-15 04:30:00,12.4,9.0,30.14,WNW,292,0.0,-999.0,86,-99.99,,,0.00,Acu-Link.com,2013-01-15 10:30:00,
2013-01-15 04:45:00,12.0,9.4,30.13,SSE,157,2.2,-999.0,89,-99.99,,,0.00,Acu-Link.com,2013-01-15 10:45:00,
2013-01-15 05:00:00,12.7,9.8,30.14,SSW,202,0.0,-999.0,88,-99.99,,,0.00,Acu-Link.com,2013-01-15 11:00:00,
2013-01-15 05:15:00,15.1,10.1,30.14,East,90,1.7,-999.0,80,-99.99,,,0.00,Acu-Link.com,2013-01-15 11:15:00,
2013-01-15 05:31:00,12.4,8.8,30.14,East,90,1.7,-999.0,85,-99.99,,,0.00,Acu-Link.com,2013-01-15 11:31:00,
2013-01-15 05:46:00,12.7,9.1,30.14,SE,135,1.1,-999.0,85,-99.99,,,0.00,Acu-Link.com,2013-01-15 11:46:00,
2013-01-15 06:01:00,12.7,9.3,30.13,SE,135,4.2,-999.0,86,-99.99,,,0.00,Acu-Link.com,2013-01-15 12:01:00,
2013-01-15 06:17:00,12.4,8.8,30.15,ESE,112,4.2,-999.0,85,-99.99,,,0.00,Acu-Link.com,2013-01-15 12:17:00,
2013-01-15 06:32:00,13.6,9.7,30.15,SSE,157,4.2,-999.0,84,-99.99,,,0.00,Acu-Link.com,2013-01-15 12:32:00,
2013-01-15 06:47:00,13.5,9.3,30.14,WSW,247,1.7,-999.0,83,-99.99,,,0.00,Acu-Link.com,2013-01-15 12:47:00,
2013-01-15 07:03:00,14.2,9.5,30.15,SSW,202,3.2,-999.0,81,-99.99,,,0.00,Acu-Link.com,2013-01-15 13:03:00,
2013-01-15 07:18:00,14.0,9.3,30.15,South,180,4.7,-999.0,81,-99.99,,,0.00,Acu-Link.com,2013-01-15 13:18:00,
2013-01-15 07:33:00,13.6,9.1,30.15,SSE,157,4.2,-999.0,82,-99.99,,,0.00,Acu-Link.com,2013-01-15 13:33:00,
2013-01-15 07:48:00,13.8,9.3,30.15,West,270,3.7,-999.0,82,-99.99,,,0.00,Acu-Link.com,2013-01-15 13:48:00,
2013-01-15 08:03:00,11.8,7.7,30.15,SSE,157,4.7,-999.0,83,-99.99,,,0.00,Acu-Link.com,2013-01-15 14:03:00,
2013-01-15 08:19:00,13.5,9.0,30.15,SSW,202,5.8,-999.0,82,-99.99,,,0.00,Acu-Link.com,2013-01-15 14:19:00,
2013-01-15 08:34:00,14.0,9.3,30.14,SSW,202,2.7,-999.0,81,-99.99,,,0.00,Acu-Link.com,2013-01-15 14:34:00,
2013-01-15 08:49:00,16.7,11.1,30.14,South,180,1.1,-999.0,78,-99.99,,,0.00,Acu-Link.com,2013-01-15 14:49:00,
2013-01-15 09:05:00,18.5,12.2,30.15,SSE,157,2.7,-999.0,76,-99.99,,,0.00,Acu-Link.com,2013-01-15 15:05:00,
2013-01-15 09:20:00,18.7,12.1,30.14,WSW,247,3.2,-999.0,75,-99.99,,,0.00,Acu-Link.com,2013-01-15 15:20:00,
2013-01-15 09:35:00,20.3,13.1,30.14,West,270,3.2,-999.0,73,-99.99,,,0.00,Acu-Link.com,2013-01-15 15:35:00,
2013-01-15 09:51:00,22.1,14.2,30.13,WSW,247,4.2,-999.0,71,-99.99,,,0.00,Acu-Link.com,2013-01-15 15:51:00,
2013-01-15 10:06:00,24.8,15.8,30.13,SSW,202,6.8,-999.0,68,-99.99,,,0.00,Acu-Link.com,2013-01-15 16:06:00,
2013-01-15 10:21:00,26.2,16.1,30.12,SW,225,4.7,-999.0,65,-99.99,,,0.00,Acu-Link.com,2013-01-15 16:21:00,
2013-01-15 10:36:00,27.7,15.7,30.12,SW,225,6.8,-999.0,60,-99.99,,,0.00,Acu-Link.com,2013-01-15 16:36:00,
2013-01-15 10:52:00,28.9,16.4,30.12,SSW,202,5.8,-999.0,59,-99.99,,,0.00,Acu-Link.com,2013-01-15 16:52:00,
2013-01-15 11:07:00,30.6,15.5,30.11,SSW,202,7.3,-999.0,53,-99.99,,,0.00,Acu-Link.com,2013-01-15 17:07:00,
2013-01-15 11:22:00,31.1,15.1,30.10,SSW,202,7.3,-999.0,51,-99.99,,,0.00,Acu-Link.com,2013-01-15 17:22:00,
2013-01-15 11:37:00,32.0,15.0,30.10,SW,225,7.8,-999.0,49,-99.99,,,0.00,Acu-Link.com,2013-01-15 17:37:00,
2013-01-15 11:53:00,32.7,14.7,30.08,WSW,247,4.7,-999.0,47,-99.99,,,0.00,Acu-Link.com,2013-01-15 17:53:00,
2013-01-15 12:08:00,33.3,14.8,30.08,SW,225,5.8,-999.0,46,-99.99,,,0.00,Acu-Link.com,2013-01-15 18:08:00,
2013-01-15 12:23:00,34.3,14.2,30.07,WSW,247,8.3,-999.0,43,-99.99,,,0.00,Acu-Link.com,2013-01-15 18:23:00,
2013-01-15 12:38:00,33.6,13.5,30.06,WSW,247,5.3,-999.0,43,-99.99,,,0.00,Acu-Link.com,2013-01-15 18:38:00,
2013-01-15 12:54:00,34.0,14.4,30.05,SW,225,5.8,-999.0,44,-99.99,,,0.00,Acu-Link.com,2013-01-15 18:54:00,
2013-01-15 13:09:00,34.3,14.2,30.05,WSW,247,6.8,-999.0,43,-99.99,,,0.00,Acu-Link.com,2013-01-15 19:09:00,
2013-01-15 13:24:00,34.3,14.7,30.04,WSW,247,4.7,-999.0,44,-99.99,,,0.00,Acu-Link.com,2013-01-15 19:24:00,
2013-01-15 13:39:00,35.6,14.8,30.03,WSW,247,4.7,-999.0,42,-99.99,,,0.00,Acu-Link.com,2013-01-15 19:39:00,
2013-01-15 13:55:00,35.4,14.6,30.02,WSW,247,8.9,-999.0,42,-99.99,,,0.00,Acu-Link.com,2013-01-15 19:55:00,
2013-01-15 14:10:00,35.4,15.2,30.02,SSW,202,9.4,-999.0,43,-99.99,,,0.00,Acu-Link.com,2013-01-15 20:10:00,
2013-01-15 14:25:00,35.6,15.3,30.02,SSW,202,8.3,-999.0,43,-99.99,,,0.00,Acu-Link.com,2013-01-15 20:25:00,
2013-01-15 14:40:00,36.5,16.2,30.03,WSW,247,7.8,-999.0,43,-99.99,,,0.00,Acu-Link.com,2013-01-15 20:40:00,
2013-01-15 14:56:00,35.1,15.9,30.02,SW,225,6.8,-999.0,45,-99.99,,,0.00,Acu-Link.com,2013-01-15 20:56:00,
2013-01-15 15:11:00,35.6,15.9,30.01,WSW,247,5.3,-999.0,44,-99.99,,,0.00,Acu-Link.com,2013-01-15 21:11:00,
2013-01-15 15:26:00,35.4,15.7,30.01,SW,225,6.8,-999.0,44,-99.99,,,0.00,Acu-Link.com,2013-01-15 21:26:00,
2013-01-15 15:41:00,35.2,16.5,30.01,SSW,202,9.9,-999.0,46,-99.99,,,0.00,Acu-Link.com,2013-01-15 21:41:00,
2013-01-15 15:57:00,35.4,17.2,30.01,SW,225,10.4,-999.0,47,-99.99,,,0.00,Acu-Link.com,2013-01-15 21:57:00,
2013-01-15 16:12:00,34.0,16.9,30.01,SSW,202,7.3,-999.0,49,-99.99,,,0.00,Acu-Link.com,2013-01-15 22:12:00,
2013-01-15 16:27:00,34.5,17.3,30.01,SW,225,9.9,-999.0,49,-99.99,,,0.00,Acu-Link.com,2013-01-15 22:27:00,
2013-01-15 16:43:00,33.4,17.2,30.00,SSW,202,6.3,-999.0,51,-99.99,,,0.00,Acu-Link.com,2013-01-15 22:43:00,
2013-01-15 16:58:00,32.5,17.3,29.99,SSW,202,6.3,-999.0,53,-99.99,,,0.00,Acu-Link.com,2013-01-15 22:58:00,
2013-01-15 17:13:00,30.6,17.2,30.00,SSW,202,5.3,-999.0,57,-99.99,,,0.00,Acu-Link.com,2013-01-15 23:13:00,
2013-01-15 17:29:00,29.7,17.2,29.99,South,180,6.8,-999.0,59,-99.99,,,0.00,Acu-Link.com,2013-01-15 23:29:00,
2013-01-15 17:44:00,28.8,17.1,29.99,South,180,6.8,-999.0,61,-99.99,,,0.00,Acu-Link.com,2013-01-15 23:44:00,
2013-01-15 17:59:00,28.0,16.7,29.99,SE,135,7.8,-999.0,62,-99.99,,,0.00,Acu-Link.com,2013-01-15 23:59:00,
2013-01-15 18:14:00,27.7,16.4,29.98,SW,225,6.8,-999.0,62,-99.99,,,0.00,Acu-Link.com,2013-01-16 00:14:00,
2013-01-15 18:30:00,27.0,16.1,29.99,SW,225,5.3,-999.0,63,-99.99,,,0.00,Acu-Link.com,2013-01-16 00:30:00,
2013-01-15 18:45:00,25.7,15.9,30.00,WSW,247,5.8,-999.0,66,-99.99,,,0.00,Acu-Link.com,2013-01-16 00:45:00,
2013-01-15 19:00:00,25.5,16.1,29.99,SSE,157,7.8,-999.0,67,-99.99,,,0.00,Acu-Link.com,2013-01-16 01:00:00,
2013-01-15 19:15:00,25.0,15.6,29.98,SSE,157,7.3,-999.0,67,-99.99,,,0.00,Acu-Link.com,2013-01-16 01:15:00,
2013-01-15 19:30:00,24.4,15.4,29.98,South,180,7.8,-999.0,68,-99.99,,,0.00,Acu-Link.com,2013-01-16 01:30:00,
2013-01-15 19:46:00,24.6,15.2,29.97,SSW,202,7.8,-999.0,67,-99.99,,,0.00,Acu-Link.com,2013-01-16 01:46:00,
2013-01-15 20:01:00,24.1,15.1,29.97,SSW,202,8.3,-999.0,68,-99.99,,,0.00,Acu-Link.com,2013-01-16 02:01:00,
2013-01-15 20:16:00,25.0,15.6,29.96,WSW,247,8.3,-999.0,67,-99.99,,,0.00,Acu-Link.com,2013-01-16 02:16:00,
2013-01-15 20:31:00,24.8,15.4,29.96,SSW,202,7.8,-999.0,67,-99.99,,,0.00,Acu-Link.com,2013-01-16 02:31:00,
2013-01-15 20:47:00,23.7,15.0,29.95,SSW,202,6.8,-999.0,69,-99.99,,,0.00,Acu-Link.com,2013-01-16 02:47:00,
2013-01-15 21:02:00,23.4,15.4,29.94,SSW,202,6.8,-999.0,71,-99.99,,,0.00,Acu-Link.com,2013-01-16 03:02:00,
2013-01-15 21:17:00,23.4,15.4,29.95,SW,225,7.3,-999.0,71,-99.99,,,0.00,Acu-Link.com,2013-01-16 03:17:00,
2013-01-15 21:32:00,22.5,15.2,29.95,South,180,6.8,-999.0,73,-99.99,,,0.00,Acu-Link.com,2013-01-16 03:32:00,
2013-01-15 21:47:00,22.6,15.6,29.95,SSW,202,5.8,-999.0,74,-99.99,,,0.00,Acu-Link.com,2013-01-16 03:47:00,
2013-01-15 22:03:00,22.1,15.4,29.94,SSW,202,5.8,-999.0,75,-99.99,,,0.00,Acu-Link.com,2013-01-16 04:03:00,
2013-01-15 22:18:00,22.6,15.9,29.93,SSW,202,8.3,-999.0,75,-99.99,,,0.00,Acu-Link.com,2013-01-16 04:18:00,
2013-01-15 22:33:00,22.6,16.2,29.93,SSW,202,9.4,-999.0,76,-99.99,,,0.00,Acu-Link.com,2013-01-16 04:33:00,
2013-01-15 22:48:00,22.5,16.1,29.92,SW,225,8.3,-999.0,76,-99.99,,,0.00,Acu-Link.com,2013-01-16 04:48:00,
2013-01-15 23:03:00,22.5,16.4,29.90,SSW,202,8.9,-999.0,77,-99.99,,,0.00,Acu-Link.com,2013-01-16 05:03:00,
2013-01-15 23:18:00,22.1,16.0,29.90,South,180,8.3,-999.0,77,-99.99,,,0.00,Acu-Link.com,2013-01-16 05:18:00,
2013-01-15 23:34:00,22.1,16.3,29.89,SW,225,8.9,-999.0,78,-99.99,,,0.00,Acu-Link.com,2013-01-16 05:34:00,
2013-01-15 23:49:00,22.1,16.3,29.89,SSW,202,9.4,-999.0,78,-99.99,,,0.00,Acu-Link.com,2013-01-16 05:49:00,